Terminal Aerodrome Forecast
Issued by NWS

Home | Current Version | Previous Version | Text Only | Print | Product List | Glossary On
Versions: 1 2 3 4 5 6 7 8 9 10 11 12 13 14 15 16 17 18 19 20 21 22 23 24
000
FTUS43 KDLH 211400 AAA
TAFHYR
TAF AMD
KHYR 211414Z 2114/2212 07006KT P6SM OVC017
     FM211600 11006KT P6SM BKN025
     FM211800 11007KT P6SM SKC
     FM220500 15005KT P6SM SKC=

USA.gov is the U.S. government's official web portal to all federal, state and local government web resources and services.